sensor_id;sensor_type;location;lat;lon;timestamp;temperature;humidity
18321;DHT22;54904;54.350;18.664;2023-05-17T00:01:32;14.40;99.30
18321;DHT22;54904;54.350;18.664;2023-05-17T00:03:59;14.40;99.20
18321;DHT22;54904;54.350;18.664;2023-05-17T00:06:27;14.40;99.20
18321;DHT22;54904;54.350;18.664;2023-05-17T00:08:54;14.40;99.10
18321;DHT22;54904;54.350;18.664;2023-05-17T00:11:23;14.50;99.20
18321;DHT22;54904;54.350;18.664;2023-05-17T00:13:50;14.40;99.10
18321;DHT22;54904;54.350;18.664;2023-05-17T00:16:17;14.30;99.10
18321;DHT22;54904;54.350;18.664;2023-05-17T00:18:44;14.30;99.20
18321;DHT22;54904;54.350;18.664;2023-05-17T00:21:11;14.30;99.70
18321;DHT22;54904;54.350;18.664;2023-05-17T00:23:42;14.30;99.30
18321;DHT22;54904;54.350;18.664;2023-05-17T00:26:09;14.30;99.60
18321;DHT22;54904;54.350;18.664;2023-05-17T00:28:36;12.60;98.70
18321;DHT22;54904;54.350;18.664;2023-05-17T00:31:03;13.80;99.20
18321;DHT22;54904;54.350;18.664;2023-05-17T00:33:30;14.30;99.70
18321;DHT22;54904;54.350;18.664;2023-05-17T00:35:58;14.30;99.50
18321;DHT22;54904;54.350;18.664;2023-05-17T00:38:25;14.20;99.70
18321;DHT22;54904;54.350;18.664;2023-05-17T00:40:53;14.20;99.60
18321;DHT22;54904;54.350;18.664;2023-05-17T00:43:20;14.20;99.80
18321;DHT22;54904;54.350;18.664;2023-05-17T00:45:47;14.20;99.70
18321;DHT22;54904;54.350;18.664;2023-05-17T00:53:13;14.20;99.60
18321;DHT22;54904;54.350;18.664;2023-05-17T00:55:42;14.20;99.90
18321;DHT22;54904;54.350;18.664;2023-05-17T00:58:11;14.20;99.90
18321;DHT22;54904;54.350;18.664;2023-05-17T01:00:38;14.10;99.90
18321;DHT22;54904;54.350;18.664;2023-05-17T01:03:06;14.10;99.90
18321;DHT22;54904;54.350;18.664;2023-05-17T01:05:33;14.00;99.90
18321;DHT22;54904;54.350;18.664;2023-05-17T01:08:02;14.00;99.90
18321;DHT22;54904;54.350;18.664;2023-05-17T01:10:35;14.10;99.90
18321;DHT22;54904;54.350;18.664;2023-05-17T01:13:09;14.10;99.90
18321;DHT22;54904;54.350;18.664;2023-05-17T01:15:47;14.10;99.90
18321;DHT22;54904;54.350;18.664;2023-05-17T01:18:20;14.20;99.90
18321;DHT22;54904;54.350;18.664;2023-05-17T01:20:52;14.10;99.90
18321;DHT22;54904;54.350;18.664;2023-05-17T01:23:34;14.20;99.90
18321;DHT22;54904;54.350;18.664;2023-05-17T01:26:06;14.20;99.90
18321;DHT22;54904;54.350;18.664;2023-05-17T01:28:36;14.20;99.90
18321;DHT22;54904;54.350;18.664;2023-05-17T01:31:04;14.30;99.90
18321;DHT22;54904;54.350;18.664;2023-05-17T01:33:36;14.20;99.90
18321;DHT22;54904;54.350;18.664;2023-05-17T01:36:05;14.20;99.90
18321;DHT22;54904;54.350;18.664;2023-05-17T01:38:33;14.20;99.90
18321;DHT22;54904;54.350;18.664;2023-05-17T01:41:05;14.20;99.90
18321;DHT22;54904;54.350;18.664;2023-05-17T01:43:42;14.30;99.90
18321;DHT22;54904;54.350;18.664;2023-05-17T01:46:18;14.30;99.90
18321;DHT22;54904;54.350;18.664;2023-05-17T01:48:55;14.30;99.90
18321;DHT22;54904;54.350;18.664;2023-05-17T01:51:27;14.30;99.90
18321;DHT22;54904;54.350;18.664;2023-05-17T01:54:01;14.20;99.90
18321;DHT22;54904;54.350;18.664;2023-05-17T01:56:33;14.20;99.90
18321;DHT22;54904;54.350;18.664;2023-05-17T01:59:04;14.20;99.90
18321;DHT22;54904;54.350;18.664;2023-05-17T02:01:33;14.20;99.90
18321;DHT22;54904;54.350;18.664;2023-05-17T02:04:01;14.10;99.90
18321;DHT22;54904;54.350;18.664;2023-05-17T02:06:31;14.10;99.90
18321;DHT22;54904;54.350;18.664;2023-05-17T02:08:58;14.00;99.90
18321;DHT22;54904;54.350;18.664;2023-05-17T02:11:27;14.00;99.90
18321;DHT22;54904;54.350;18.664;2023-05-17T02:13:54;13.90;99.90
18321;DHT22;54904;54.350;18.664;2023-05-17T02:16:24;13.90;99.90
18321;DHT22;54904;54.350;18.664;2023-05-17T02:18:51;13.80;99.90
18321;DHT22;54904;54.350;18.664;2023-05-17T02:21:20;13.80;99.90
18321;DHT22;54904;54.350;18.664;2023-05-17T02:23:47;13.80;99.90
18321;DHT22;54904;54.350;18.664;2023-05-17T02:26:18;13.80;99.90
18321;DHT22;54904;54.350;18.664;2023-05-17T02:28:45;13.80;99.90
18321;DHT22;54904;54.350;18.664;2023-05-17T02:31:12;13.80;99.90
18321;DHT22;54904;54.350;18.664;2023-05-17T02:33:41;13.80;99.90
18321;DHT22;54904;54.350;18.664;2023-05-17T02:36:08;13.80;99.90
18321;DHT22;54904;54.350;18.664;2023-05-17T02:38:35;13.80;99.90
18321;DHT22;54904;54.350;18.664;2023-05-17T02:41:04;13.90;99.90
18321;DHT22;54904;54.350;18.664;2023-05-17T02:43:31;13.90;99.90
18321;DHT22;54904;54.350;18.664;2023-05-17T02:45:58;13.90;99.90
18321;DHT22;54904;54.350;18.664;2023-05-17T02:48:25;13.90;99.90
18321;DHT22;54904;54.350;18.664;2023-05-17T02:50:54;13.90;99.90
18321;DHT22;54904;54.350;18.664;2023-05-17T02:53:21;13.90;99.90
18321;DHT22;54904;54.350;18.664;2023-05-17T02:55:48;14.00;99.90
18321;DHT22;54904;54.350;18.664;2023-05-17T02:58:16;14.00;99.90
18321;DHT22;54904;54.350;18.664;2023-05-17T03:00:44;14.00;99.90
18321;DHT22;54904;54.350;18.664;2023-05-17T03:03:12;13.90;99.90
18321;DHT22;54904;54.350;18.664;2023-05-17T03:05:39;14.00;99.90
18321;DHT22;54904;54.350;18.664;2023-05-17T03:08:07;14.00;99.90
18321;DHT22;54904;54.350;18.664;2023-05-17T03:10:35;14.00;99.90
18321;DHT22;54904;54.350;18.664;2023-05-17T03:13:03;13.90;99.90
18321;DHT22;54904;54.350;18.664;2023-05-17T03:15:34;13.90;99.90
18321;DHT22;54904;54.350;18.664;2023-05-17T03:18:02;13.90;99.90
18321;DHT22;54904;54.350;18.664;2023-05-17T03:20:30;13.90;99.90
18321;DHT22;54904;54.350;18.664;2023-05-17T03:22:57;13.90;99.90
18321;DHT22;54904;54.350;18.664;2023-05-17T03:25:25;13.80;99.90
18321;DHT22;54904;54.350;18.664;2023-05-17T03:27:52;13.80;99.90
18321;DHT22;54904;54.350;18.664;2023-05-17T03:30:20;13.70;99.90
18321;DHT22;54904;54.350;18.664;2023-05-17T03:32:47;13.70;99.90
18321;DHT22;54904;54.350;18.664;2023-05-17T03:35:14;13.70;99.90
18321;DHT22;54904;54.350;18.664;2023-05-17T03:37:45;13.70;99.90
18321;DHT22;54904;54.350;18.664;2023-05-17T03:40:12;13.70;99.90
18321;DHT22;54904;54.350;18.664;2023-05-17T03:42:41;13.70;99.90
18321;DHT22;54904;54.350;18.664;2023-05-17T03:45:09;13.70;99.90
18321;DHT22;54904;54.350;18.664;2023-05-17T03:47:37;13.60;99.90
18321;DHT22;54904;54.350;18.664;2023-05-17T03:50:06;13.60;99.90
18321;DHT22;54904;54.350;18.664;2023-05-17T03:52:34;13.60;99.90
18321;DHT22;54904;54.350;18.664;2023-05-17T03:55:01;13.50;99.90
18321;DHT22;54904;54.350;18.664;2023-05-17T03:57:31;13.60;99.90
18321;DHT22;54904;54.350;18.664;2023-05-17T04:00:00;13.60;99.90
18321;DHT22;54904;54.350;18.664;2023-05-17T04:02:27;13.70;99.90
18321;DHT22;54904;54.350;18.664;2023-05-17T04:04:54;13.70;99.90
18321;DHT22;54904;54.350;18.664;2023-05-17T04:07:22;13.70;99.90
18321;DHT22;54904;54.350;18.664;2023-05-17T04:09:50;13.80;99.90
18321;DHT22;54904;54.350;18.664;2023-05-17T04:12:17;13.80;99.90
18321;DHT22;54904;54.350;18.664;2023-05-17T04:14:44;13.80;99.80
18321;DHT22;54904;54.350;18.664;2023-05-17T04:17:13;13.80;99.80
18321;DHT22;54904;54.350;18.664;2023-05-17T04:19:40;13.80;99.70
18321;DHT22;54904;54.350;18.664;2023-05-17T04:22:07;14.30;99.80
18321;DHT22;54904;54.350;18.664;2023-05-17T04:24:35;13.90;99.30
18321;DHT22;54904;54.350;18.664;2023-05-17T04:27:03;14.30;99.30
18321;DHT22;54904;54.350;18.664;2023-05-17T04:29:31;13.90;99.00
18321;DHT22;54904;54.350;18.664;2023-05-17T04:31:58;13.90;98.90
18321;DHT22;54904;54.350;18.664;2023-05-17T04:34:27;13.80;98.90
18321;DHT22;54904;54.350;18.664;2023-05-17T04:36:57;13.90;99.00
18321;DHT22;54904;54.350;18.664;2023-05-17T04:39:26;13.80;98.90
18321;DHT22;54904;54.350;18.664;2023-05-17T04:41:53;13.90;98.90
18321;DHT22;54904;54.350;18.664;2023-05-17T04:44:23;13.80;98.70
18321;DHT22;54904;54.350;18.664;2023-05-17T04:46:51;13.80;98.50
18321;DHT22;54904;54.350;18.664;2023-05-17T04:49:19;13.80;98.40
18321;DHT22;54904;54.350;18.664;2023-05-17T04:51:47;13.80;98.40
18321;DHT22;54904;54.350;18.664;2023-05-17T04:54:15;13.80;98.40
18321;DHT22;54904;54.350;18.664;2023-05-17T04:56:42;13.70;99.90
18321;DHT22;54904;54.350;18.664;2023-05-17T04:59:15;13.80;98.30
18321;DHT22;54904;54.350;18.664;2023-05-17T05:01:42;13.80;98.30
18321;DHT22;54904;54.350;18.664;2023-05-17T05:04:09;13.80;98.50
18321;DHT22;54904;54.350;18.664;2023-05-17T05:06:40;13.80;98.10
18321;DHT22;54904;54.350;18.664;2023-05-17T05:09:09;13.70;98.10
18321;DHT22;54904;54.350;18.664;2023-05-17T05:14:07;13.70;97.80
18321;DHT22;54904;54.350;18.664;2023-05-17T05:16:35;13.70;98.00
18321;DHT22;54904;54.350;18.664;2023-05-17T05:19:03;13.60;97.90
18321;DHT22;54904;54.350;18.664;2023-05-17T05:21:30;13.70;98.00
18321;DHT22;54904;54.350;18.664;2023-05-17T05:26:30;13.70;97.60
18321;DHT22;54904;54.350;18.664;2023-05-17T05:28:59;13.70;97.90
18321;DHT22;54904;54.350;18.664;2023-05-17T05:31:27;13.70;97.90
18321;DHT22;54904;54.350;18.664;2023-05-17T05:33:57;13.70;98.00
18321;DHT22;54904;54.350;18.664;2023-05-17T05:36:25;13.80;97.90
18321;DHT22;54904;54.350;18.664;2023-05-17T05:38:53;13.80;97.80
18321;DHT22;54904;54.350;18.664;2023-05-17T05:41:21;13.80;97.80
18321;DHT22;54904;54.350;18.664;2023-05-17T05:43:51;13.80;97.80
18321;DHT22;54904;54.350;18.664;2023-05-17T05:46:18;13.90;97.90
18321;DHT22;54904;54.350;18.664;2023-05-17T05:48:45;13.90;97.80
18321;DHT22;54904;54.350;18.664;2023-05-17T05:51:12;13.90;97.80
18321;DHT22;54904;54.350;18.664;2023-05-17T05:53:41;14.00;97.90
18321;DHT22;54904;54.350;18.664;2023-05-17T05:56:09;14.00;97.70
18321;DHT22;54904;54.350;18.664;2023-05-17T05:58:38;14.00;97.70
18321;DHT22;54904;54.350;18.664;2023-05-17T06:01:07;14.10;97.60
18321;DHT22;54904;54.350;18.664;2023-05-17T06:03:35;14.10;97.50
18321;DHT22;54904;54.350;18.664;2023-05-17T06:06:02;14.20;97.40
18321;DHT22;54904;54.350;18.664;2023-05-17T06:08:32;14.20;97.10
18321;DHT22;54904;54.350;18.664;2023-05-17T06:10:59;14.30;97.00
18321;DHT22;54904;54.350;18.664;2023-05-17T06:13:27;14.30;97.00
18321;DHT22;54904;54.350;18.664;2023-05-17T06:15:55;14.30;96.90
18321;DHT22;54904;54.350;18.664;2023-05-17T06:18:24;14.40;96.80
18321;DHT22;54904;54.350;18.664;2023-05-17T06:20:52;14.40;96.60
18321;DHT22;54904;54.350;18.664;2023-05-17T06:23:19;14.40;96.40
18321;DHT22;54904;54.350;18.664;2023-05-17T06:25:46;14.40;96.40
18321;DHT22;54904;54.350;18.664;2023-05-17T06:28:13;14.40;96.30
18321;DHT22;54904;54.350;18.664;2023-05-17T06:30:40;14.40;96.10
18321;DHT22;54904;54.350;18.664;2023-05-17T06:33:08;14.40;95.70
18321;DHT22;54904;54.350;18.664;2023-05-17T06:35:36;14.50;95.30
18321;DHT22;54904;54.350;18.664;2023-05-17T06:38:04;14.50;95.00
18321;DHT22;54904;54.350;18.664;2023-05-17T06:40:31;14.50;95.30
18321;DHT22;54904;54.350;18.664;2023-05-17T06:42:58;14.60;95.00
18321;DHT22;54904;54.350;18.664;2023-05-17T06:45:27;14.60;94.60
18321;DHT22;54904;54.350;18.664;2023-05-17T06:47:54;14.60;94.20
18321;DHT22;54904;54.350;18.664;2023-05-17T06:50:21;14.70;94.10
18321;DHT22;54904;54.350;18.664;2023-05-17T06:52:50;14.80;93.80
18321;DHT22;54904;54.350;18.664;2023-05-17T06:55:17;14.80;93.60
18321;DHT22;54904;54.350;18.664;2023-05-17T06:57:44;14.90;93.40
18321;DHT22;54904;54.350;18.664;2023-05-17T07:00:15;14.90;93.20
18321;DHT22;54904;54.350;18.664;2023-05-17T07:02:42;15.00;93.20
18321;DHT22;54904;54.350;18.664;2023-05-17T07:05:09;15.00;93.10
18321;DHT22;54904;54.350;18.664;2023-05-17T07:07:36;15.10;93.00
18321;DHT22;54904;54.350;18.664;2023-05-17T07:10:06;15.10;92.90
18321;DHT22;54904;54.350;18.664;2023-05-17T07:12:33;15.20;92.60
18321;DHT22;54904;54.350;18.664;2023-05-17T07:15:00;15.40;93.00
18321;DHT22;54904;54.350;18.664;2023-05-17T07:17:28;15.40;92.30
18321;DHT22;54904;54.350;18.664;2023-05-17T07:19:57;15.50;92.10
18321;DHT22;54904;54.350;18.664;2023-05-17T07:22:24;15.50;91.70
18321;DHT22;54904;54.350;18.664;2023-05-17T07:24:51;15.50;91.60
18321;DHT22;54904;54.350;18.664;2023-05-17T07:27:20;15.50;91.80
18321;DHT22;54904;54.350;18.664;2023-05-17T07:29:47;15.50;91.20
18321;DHT22;54904;54.350;18.664;2023-05-17T07:32:14;15.60;91.10
18321;DHT22;54904;54.350;18.664;2023-05-17T07:34:42;15.60;91.10
18321;DHT22;54904;54.350;18.664;2023-05-17T07:37:10;15.60;91.10
18321;DHT22;54904;54.350;18.664;2023-05-17T07:39:37;15.50;91.10
18321;DHT22;54904;54.350;18.664;2023-05-17T07:42:05;15.40;91.00
18321;DHT22;54904;54.350;18.664;2023-05-17T07:44:34;15.30;91.10
18321;DHT22;54904;54.350;18.664;2023-05-17T07:47:01;15.30;91.00
18321;DHT22;54904;54.350;18.664;2023-05-17T07:49:29;15.20;90.80
18321;DHT22;54904;54.350;18.664;2023-05-17T07:51:56;15.10;90.90
18321;DHT22;54904;54.350;18.664;2023-05-17T07:54:24;15.10;91.00
18321;DHT22;54904;54.350;18.664;2023-05-17T07:56:52;15.10;91.10
18321;DHT22;54904;54.350;18.664;2023-05-17T07:59:20;15.10;91.30
18321;DHT22;54904;54.350;18.664;2023-05-17T08:01:48;15.10;91.00
18321;DHT22;54904;54.350;18.664;2023-05-17T08:04:16;15.10;91.00
18321;DHT22;54904;54.350;18.664;2023-05-17T08:06:44;15.10;91.00
18321;DHT22;54904;54.350;18.664;2023-05-17T08:09:13;15.10;91.10
18321;DHT22;54904;54.350;18.664;2023-05-17T08:11:41;15.10;91.10
18321;DHT22;54904;54.350;18.664;2023-05-17T08:14:11;15.10;91.20
18321;DHT22;54904;54.350;18.664;2023-05-17T08:16:39;15.10;91.10
18321;DHT22;54904;54.350;18.664;2023-05-17T08:19:11;15.10;91.10
18321;DHT22;54904;54.350;18.664;2023-05-17T08:21:38;15.10;91.00
18321;DHT22;54904;54.350;18.664;2023-05-17T08:24:06;15.10;91.00
18321;DHT22;54904;54.350;18.664;2023-05-17T08:26:34;15.10;91.00
18321;DHT22;54904;54.350;18.664;2023-05-17T08:29:04;15.10;90.80
18321;DHT22;54904;54.350;18.664;2023-05-17T08:31:32;15.10;90.70
18321;DHT22;54904;54.350;18.664;2023-05-17T08:33:59;15.20;90.50
18321;DHT22;54904;54.350;18.664;2023-05-17T08:36:28;15.20;90.30
18321;DHT22;54904;54.350;18.664;2023-05-17T08:38:55;15.20;90.10
18321;DHT22;54904;54.350;18.664;2023-05-17T08:41:23;15.30;90.50
18321;DHT22;54904;54.350;18.664;2023-05-17T08:43:51;15.30;90.60
18321;DHT22;54904;54.350;18.664;2023-05-17T08:46:19;15.40;90.60
18321;DHT22;54904;54.350;18.664;2023-05-17T08:48:49;15.60;90.60
18321;DHT22;54904;54.350;18.664;2023-05-17T08:51:17;15.70;90.60
18321;DHT22;54904;54.350;18.664;2023-05-17T08:53:49;15.80;90.00
18321;DHT22;54904;54.350;18.664;2023-05-17T08:56:17;15.80;88.10
18321;DHT22;54904;54.350;18.664;2023-05-17T08:58:47;15.70;88.00
18321;DHT22;54904;54.350;18.664;2023-05-17T09:01:16;17.50;89.80
18321;DHT22;54904;54.350;18.664;2023-05-17T09:03:46;15.60;87.90
18321;DHT22;54904;54.350;18.664;2023-05-17T09:06:15;15.60;88.30
18321;DHT22;54904;54.350;18.664;2023-05-17T09:08:43;15.60;88.20
18321;DHT22;54904;54.350;18.664;2023-05-17T09:11:23;15.60;88.40
18321;DHT22;54904;54.350;18.664;2023-05-17T09:13:51;15.70;88.90
18321;DHT22;54904;54.350;18.664;2023-05-17T09:16:18;15.70;88.50
18321;DHT22;54904;54.350;18.664;2023-05-17T09:18:53;15.80;88.50
18321;DHT22;54904;54.350;18.664;2023-05-17T09:21:20;16.60;89.80
18321;DHT22;54904;54.350;18.664;2023-05-17T09:23:50;15.90;88.90
18321;DHT22;54904;54.350;18.664;2023-05-17T09:26:20;15.90;89.00
18321;DHT22;54904;54.350;18.664;2023-05-17T09:28:47;16.00;88.70
18321;DHT22;54904;54.350;18.664;2023-05-17T09:31:15;16.10;88.40
18321;DHT22;54904;54.350;18.664;2023-05-17T09:33:44;16.10;87.80
18321;DHT22;54904;54.350;18.664;2023-05-17T09:36:15;16.20;87.30
18321;DHT22;54904;54.350;18.664;2023-05-17T09:38:43;16.30;87.00
18321;DHT22;54904;54.350;18.664;2023-05-17T09:41:21;16.30;86.30
18321;DHT22;54904;54.350;18.664;2023-05-17T09:43:52;16.50;86.10
18321;DHT22;54904;54.350;18.664;2023-05-17T09:46:19;16.60;86.20
18321;DHT22;54904;54.350;18.664;2023-05-17T09:48:52;16.80;85.60
18321;DHT22;54904;54.350;18.664;2023-05-17T09:51:32;16.60;85.10
18321;DHT22;54904;54.350;18.664;2023-05-17T09:54:00;16.90;85.30
18321;DHT22;54904;54.350;18.664;2023-05-17T09:56:29;17.00;85.80
18321;DHT22;54904;54.350;18.664;2023-05-17T09:58:56;17.00;85.10
18321;DHT22;54904;54.350;18.664;2023-05-17T10:01:26;17.00;84.70
18321;DHT22;54904;54.350;18.664;2023-05-17T10:03:54;17.00;84.80
18321;DHT22;54904;54.350;18.664;2023-05-17T10:06:22;17.00;84.30
18321;DHT22;54904;54.350;18.664;2023-05-17T10:08:52;17.10;83.90
18321;DHT22;54904;54.350;18.664;2023-05-17T10:11:25;17.10;83.50
18321;DHT22;54904;54.350;18.664;2023-05-17T10:14:04;17.30;82.20
18321;DHT22;54904;54.350;18.664;2023-05-17T10:16:33;17.30;81.50
18321;DHT22;54904;54.350;18.664;2023-05-17T10:19:01;17.30;81.30
18321;DHT22;54904;54.350;18.664;2023-05-17T10:21:29;17.30;80.60
18321;DHT22;54904;54.350;18.664;2023-05-17T10:23:58;17.30;79.80
18321;DHT22;54904;54.350;18.664;2023-05-17T10:26:26;17.30;79.40
18321;DHT22;54904;54.350;18.664;2023-05-17T10:28:57;17.50;79.60
18321;DHT22;54904;54.350;18.664;2023-05-17T10:31:28;17.60;79.30
18321;DHT22;54904;54.350;18.664;2023-05-17T10:33:58;17.50;78.50
18321;DHT22;54904;54.350;18.664;2023-05-17T10:36:26;17.90;77.60
18321;DHT22;54904;54.350;18.664;2023-05-17T10:38:54;17.90;76.50
18321;DHT22;54904;54.350;18.664;2023-05-17T10:41:23;17.90;75.60
18321;DHT22;54904;54.350;18.664;2023-05-17T10:43:52;17.90;75.80
18321;DHT22;54904;54.350;18.664;2023-05-17T10:46:22;17.90;76.20
18321;DHT22;54904;54.350;18.664;2023-05-17T10:48:50;18.00;75.70
18321;DHT22;54904;54.350;18.664;2023-05-17T10:51:22;18.00;75.10
18321;DHT22;54904;54.350;18.664;2023-05-17T10:54:10;18.10;74.70
18321;DHT22;54904;54.350;18.664;2023-05-17T10:56:41;18.20;74.40
18321;DHT22;54904;54.350;18.664;2023-05-17T10:59:22;18.30;74.40
18321;DHT22;54904;54.350;18.664;2023-05-17T11:01:56;18.30;73.20
18321;DHT22;54904;54.350;18.664;2023-05-17T11:04:25;18.30;72.70
18321;DHT22;54904;54.350;18.664;2023-05-17T11:06:54;18.30;72.30
18321;DHT22;54904;54.350;18.664;2023-05-17T11:09:41;18.30;71.50
18321;DHT22;54904;54.350;18.664;2023-05-17T11:12:09;18.30;71.00
18321;DHT22;54904;54.350;18.664;2023-05-17T11:14:56;18.20;70.80
18321;DHT22;54904;54.350;18.664;2023-05-17T11:17:25;18.10;70.80
18321;DHT22;54904;54.350;18.664;2023-05-17T11:20:01;18.20;70.10
18321;DHT22;54904;54.350;18.664;2023-05-17T11:22:35;18.20;69.60
18321;DHT22;54904;54.350;18.664;2023-05-17T11:25:06;18.10;69.20
18321;DHT22;54904;54.350;18.664;2023-05-17T11:27:39;18.20;69.00
18321;DHT22;54904;54.350;18.664;2023-05-17T11:30:16;18.30;68.80
18321;DHT22;54904;54.350;18.664;2023-05-17T11:32:48;18.20;68.40
18321;DHT22;54904;54.350;18.664;2023-05-17T11:35:17;18.20;68.00
18321;DHT22;54904;54.350;18.664;2023-05-17T11:37:44;18.30;69.10
18321;DHT22;54904;54.350;18.664;2023-05-17T11:40:12;18.50;69.00
18321;DHT22;54904;54.350;18.664;2023-05-17T11:45:41;20.10;69.10
18321;DHT22;54904;54.350;18.664;2023-05-17T11:48:14;18.60;67.20
18321;DHT22;54904;54.350;18.664;2023-05-17T11:50:43;18.60;67.10
18321;DHT22;54904;54.350;18.664;2023-05-17T11:53:10;18.60;66.40
18321;DHT22;54904;54.350;18.664;2023-05-17T11:55:38;18.60;66.20
18321;DHT22;54904;54.350;18.664;2023-05-17T11:58:08;18.70;66.30
18321;DHT22;54904;54.350;18.664;2023-05-17T12:00:39;18.70;65.90
18321;DHT22;54904;54.350;18.664;2023-05-17T12:03:21;19.30;66.40
18321;DHT22;54904;54.350;18.664;2023-05-17T12:05:50;18.90;66.70
18321;DHT22;54904;54.350;18.664;2023-05-17T12:08:19;18.90;65.80
18321;DHT22;54904;54.350;18.664;2023-05-17T12:10:49;19.00;65.70
18321;DHT22;54904;54.350;18.664;2023-05-17T12:13:16;19.10;65.40
18321;DHT22;54904;54.350;18.664;2023-05-17T12:15:50;19.10;65.20
18321;DHT22;54904;54.350;18.664;2023-05-17T12:18:20;19.20;65.30
18321;DHT22;54904;54.350;18.664;2023-05-17T12:20:55;19.20;65.00
18321;DHT22;54904;54.350;18.664;2023-05-17T12:23:27;19.30;64.90
18321;DHT22;54904;54.350;18.664;2023-05-17T12:26:02;19.20;63.90
18321;DHT22;54904;54.350;18.664;2023-05-17T12:28:32;19.10;63.20
18321;DHT22;54904;54.350;18.664;2023-05-17T12:31:02;19.10;63.80
18321;DHT22;54904;54.350;18.664;2023-05-17T12:33:34;19.10;63.60
18321;DHT22;54904;54.350;18.664;2023-05-17T12:36:04;19.20;63.70
18321;DHT22;54904;54.350;18.664;2023-05-17T12:38:31;19.20;63.00
18321;DHT22;54904;54.350;18.664;2023-05-17T12:41:00;19.20;62.70
18321;DHT22;54904;54.350;18.664;2023-05-17T12:43:32;19.10;62.40
18321;DHT22;54904;54.350;18.664;2023-05-17T12:46:05;19.10;62.80
18321;DHT22;54904;54.350;18.664;2023-05-17T12:48:35;19.10;62.70
18321;DHT22;54904;54.350;18.664;2023-05-17T12:51:06;19.10;62.20
18321;DHT22;54904;54.350;18.664;2023-05-17T12:53:34;19.10;62.40
18321;DHT22;54904;54.350;18.664;2023-05-17T12:56:02;19.10;62.10
18321;DHT22;54904;54.350;18.664;2023-05-17T12:58:29;19.10;61.50
18321;DHT22;54904;54.350;18.664;2023-05-17T13:00:58;19.00;60.70
18321;DHT22;54904;54.350;18.664;2023-05-17T13:03:26;19.00;60.30
18321;DHT22;54904;54.350;18.664;2023-05-17T13:06:02;18.90;60.00
18321;DHT22;54904;54.350;18.664;2023-05-17T13:08:32;18.80;59.40
18321;DHT22;54904;54.350;18.664;2023-05-17T13:11:07;18.80;59.40
18321;DHT22;54904;54.350;18.664;2023-05-17T13:13:35;18.70;59.50
18321;DHT22;54904;54.350;18.664;2023-05-17T13:16:05;18.80;59.40
18321;DHT22;54904;54.350;18.664;2023-05-17T13:18:49;18.70;59.00
18321;DHT22;54904;54.350;18.664;2023-05-17T13:21:18;18.70;59.60
18321;DHT22;54904;54.350;18.664;2023-05-17T13:23:48;18.70;59.00
18321;DHT22;54904;54.350;18.664;2023-05-17T13:26:16;18.80;59.00
18321;DHT22;54904;54.350;18.664;2023-05-17T13:28:43;18.80;59.00
18321;DHT22;54904;54.350;18.664;2023-05-17T13:31:11;18.80;58.70
18321;DHT22;54904;54.350;18.664;2023-05-17T13:33:38;18.80;58.60
18321;DHT22;54904;54.350;18.664;2023-05-17T13:36:05;18.70;58.00
18321;DHT22;54904;54.350;18.664;2023-05-17T13:38:34;18.70;57.70
18321;DHT22;54904;54.350;18.664;2023-05-17T13:41:01;18.70;58.00
18321;DHT22;54904;54.350;18.664;2023-05-17T13:43:29;18.70;58.10
18321;DHT22;54904;54.350;18.664;2023-05-17T13:45:56;18.80;58.30
18321;DHT22;54904;54.350;18.664;2023-05-17T13:48:23;18.80;58.00
18321;DHT22;54904;54.350;18.664;2023-05-17T13:50:51;18.80;58.30
18321;DHT22;54904;54.350;18.664;2023-05-17T13:53:21;18.50;57.50
18321;DHT22;54904;54.350;18.664;2023-05-17T13:55:50;18.70;57.60
18321;DHT22;54904;54.350;18.664;2023-05-17T13:58:17;18.70;57.60
18321;DHT22;54904;54.350;18.664;2023-05-17T14:00:44;18.60;57.60
18321;DHT22;54904;54.350;18.664;2023-05-17T14:03:11;18.60;57.80
18321;DHT22;54904;54.350;18.664;2023-05-17T14:05:42;18.70;58.00
18321;DHT22;54904;54.350;18.664;2023-05-17T14:08:10;18.70;57.60
18321;DHT22;54904;54.350;18.664;2023-05-17T14:10:38;18.60;57.20
18321;DHT22;54904;54.350;18.664;2023-05-17T14:13:07;18.50;57.40
18321;DHT22;54904;54.350;18.664;2023-05-17T14:15:34;18.30;57.40
18321;DHT22;54904;54.350;18.664;2023-05-17T14:18:03;18.30;57.10
18321;DHT22;54904;54.350;18.664;2023-05-17T14:20:30;18.20;56.90
18321;DHT22;54904;54.350;18.664;2023-05-17T14:22:59;18.10;56.90
18321;DHT22;54904;54.350;18.664;2023-05-17T14:25:27;18.10;57.50
18321;DHT22;54904;54.350;18.664;2023-05-17T14:27:54;18.00;55.70
18321;DHT22;54904;54.350;18.664;2023-05-17T14:30:23;17.90;55.80
18321;DHT22;54904;54.350;18.664;2023-05-17T14:32:50;17.90;56.00
18321;DHT22;54904;54.350;18.664;2023-05-17T14:35:17;17.60;56.00
18321;DHT22;54904;54.350;18.664;2023-05-17T14:37:47;17.60;56.30
18321;DHT22;54904;54.350;18.664;2023-05-17T14:40:14;17.60;56.60
18321;DHT22;54904;54.350;18.664;2023-05-17T14:42:41;17.50;56.50
18321;DHT22;54904;54.350;18.664;2023-05-17T14:45:09;16.90;56.30
18321;DHT22;54904;54.350;18.664;2023-05-17T14:47:37;17.50;56.80
18321;DHT22;54904;54.350;18.664;2023-05-17T14:50:05;17.50;56.90
18321;DHT22;54904;54.350;18.664;2023-05-17T14:52:33;17.50;56.90
18321;DHT22;54904;54.350;18.664;2023-05-17T14:55:00;17.50;56.80
18321;DHT22;54904;54.350;18.664;2023-05-17T14:57:27;17.40;56.90
18321;DHT22;54904;54.350;18.664;2023-05-17T14:59:55;17.50;56.80
18321;DHT22;54904;54.350;18.664;2023-05-17T15:02:22;17.40;56.80
18321;DHT22;54904;54.350;18.664;2023-05-17T15:04:50;17.40;56.70
18321;DHT22;54904;54.350;18.664;2023-05-17T15:07:18;17.20;56.80
18321;DHT22;54904;54.350;18.664;2023-05-17T15:09:45;17.20;56.80
18321;DHT22;54904;54.350;18.664;2023-05-17T15:12:13;17.20;57.10
18321;DHT22;54904;54.350;18.664;2023-05-17T15:14:43;17.10;57.00
18321;DHT22;54904;54.350;18.664;2023-05-17T15:17:14;17.10;57.10
18321;DHT22;54904;54.350;18.664;2023-05-17T15:19:41;17.10;57.10
18321;DHT22;54904;54.350;18.664;2023-05-17T15:22:10;17.10;57.70
18321;DHT22;54904;54.350;18.664;2023-05-17T15:24:37;18.60;58.10
18321;DHT22;54904;54.350;18.664;2023-05-17T15:27:04;16.90;56.80
18321;DHT22;54904;54.350;18.664;2023-05-17T15:29:35;16.80;56.90
18321;DHT22;54904;54.350;18.664;2023-05-17T15:32:06;16.80;57.20
18321;DHT22;54904;54.350;18.664;2023-05-17T15:34:33;16.80;57.20
18321;DHT22;54904;54.350;18.664;2023-05-17T15:37:01;16.80;57.00
18321;DHT22;54904;54.350;18.664;2023-05-17T15:39:29;16.70;56.80